sensor_id;sensor_type;location;lat;lon;timestamp;temperature;humidity
6252;DHT22;3159;52.414;9.784;2024-02-21T00:00:45;9.00;99.90
6252;DHT22;3159;52.414;9.784;2024-02-21T00:03:12;9.00;99.90
6252;DHT22;3159;52.414;9.784;2024-02-21T00:05:38;9.10;99.90
6252;DHT22;3159;52.414;9.784;2024-02-21T00:08:05;9.00;99.90
6252;DHT22;3159;52.414;9.784;2024-02-21T00:10:32;9.00;99.90
6252;DHT22;3159;52.414;9.784;2024-02-21T00:13:02;9.00;99.90
6252;DHT22;3159;52.414;9.784;2024-02-21T00:15:28;9.10;99.90
6252;DHT22;3159;52.414;9.784;2024-02-21T00:17:56;9.10;99.90
6252;DHT22;3159;52.414;9.784;2024-02-21T00:20:22;9.10;99.90
6252;DHT22;3159;52.414;9.784;2024-02-21T00:22:51;9.10;99.90
6252;DHT22;3159;52.414;9.784;2024-02-21T00:25:18;9.10;99.90
6252;DHT22;3159;52.414;9.784;2024-02-21T00:27:44;9.00;99.90
6252;DHT22;3159;52.414;9.784;2024-02-21T00:30:13;9.00;99.90
6252;DHT22;3159;52.414;9.784;2024-02-21T00:32:40;9.00;99.90
6252;DHT22;3159;52.414;9.784;2024-02-21T00:35:07;9.00;99.90
6252;DHT22;3159;52.414;9.784;2024-02-21T00:37:34;9.00;99.90
6252;DHT22;3159;52.414;9.784;2024-02-21T00:40:01;9.10;99.90
6252;DHT22;3159;52.414;9.784;2024-02-21T00:42:28;9.10;99.90
6252;DHT22;3159;52.414;9.784;2024-02-21T00:44:55;9.00;99.90
6252;DHT22;3159;52.414;9.784;2024-02-21T00:47:23;9.10;99.90
6252;DHT22;3159;52.414;9.784;2024-02-21T00:49:49;9.10;99.90
6252;DHT22;3159;52.414;9.784;2024-02-21T00:52:16;9.10;99.90
6252;DHT22;3159;52.414;9.784;2024-02-21T00:54:43;9.00;99.90
6252;DHT22;3159;52.414;9.784;2024-02-21T00:57:10;9.10;99.90
6252;DHT22;3159;52.414;9.784;2024-02-21T00:59:37;9.10;99.90
6252;DHT22;3159;52.414;9.784;2024-02-21T01:02:04;9.10;99.90
6252;DHT22;3159;52.414;9.784;2024-02-21T01:04:32;9.10;99.90
6252;DHT22;3159;52.414;9.784;2024-02-21T01:06:59;9.10;99.90
6252;DHT22;3159;52.414;9.784;2024-02-21T01:09:26;9.10;99.90
6252;DHT22;3159;52.414;9.784;2024-02-21T01:11:53;9.10;99.90
6252;DHT22;3159;52.414;9.784;2024-02-21T01:14:19;9.10;99.90
6252;DHT22;3159;52.414;9.784;2024-02-21T01:16:46;9.10;99.90
6252;DHT22;3159;52.414;9.784;2024-02-21T01:19:13;9.10;99.90
6252;DHT22;3159;52.414;9.784;2024-02-21T01:21:41;9.10;99.90
6252;DHT22;3159;52.414;9.784;2024-02-21T01:24:08;9.20;99.90
6252;DHT22;3159;52.414;9.784;2024-02-21T01:26:35;9.20;99.90
6252;DHT22;3159;52.414;9.784;2024-02-21T01:29:01;9.10;99.90
6252;DHT22;3159;52.414;9.784;2024-02-21T01:31:28;9.10;99.90
6252;DHT22;3159;52.414;9.784;2024-02-21T01:33:55;9.10;99.90
6252;DHT22;3159;52.414;9.784;2024-02-21T01:36:22;9.10;99.90
6252;DHT22;3159;52.414;9.784;2024-02-21T01:38:50;9.10;99.90
6252;DHT22;3159;52.414;9.784;2024-02-21T01:41:17;9.10;99.90
6252;DHT22;3159;52.414;9.784;2024-02-21T01:43:44;9.10;99.90
6252;DHT22;3159;52.414;9.784;2024-02-21T01:46:11;9.10;99.90
6252;DHT22;3159;52.414;9.784;2024-02-21T01:48:38;9.10;99.90
6252;DHT22;3159;52.414;9.784;2024-02-21T01:51:05;9.10;99.90
6252;DHT22;3159;52.414;9.784;2024-02-21T01:53:34;9.10;99.90
6252;DHT22;3159;52.414;9.784;2024-02-21T01:56:05;9.10;99.90
6252;DHT22;3159;52.414;9.784;2024-02-21T01:58:32;9.10;99.90
6252;DHT22;3159;52.414;9.784;2024-02-21T02:01:03;9.10;99.90
6252;DHT22;3159;52.414;9.784;2024-02-21T02:03:30;9.10;99.90
6252;DHT22;3159;52.414;9.784;2024-02-21T02:05:57;9.10;99.90
6252;DHT22;3159;52.414;9.784;2024-02-21T02:08:24;9.20;99.90
6252;DHT22;3159;52.414;9.784;2024-02-21T02:10:51;9.20;99.90
6252;DHT22;3159;52.414;9.784;2024-02-21T02:13:20;9.20;99.90
6252;DHT22;3159;52.414;9.784;2024-02-21T02:15:48;9.20;99.90
6252;DHT22;3159;52.414;9.784;2024-02-21T02:18:16;9.20;99.90
6252;DHT22;3159;52.414;9.784;2024-02-21T02:20:43;9.20;99.90
6252;DHT22;3159;52.414;9.784;2024-02-21T02:25:42;9.20;99.90
6252;DHT22;3159;52.414;9.784;2024-02-21T02:28:09;9.20;99.90
6252;DHT22;3159;52.414;9.784;2024-02-21T02:30:36;9.20;99.90
6252;DHT22;3159;52.414;9.784;2024-02-21T02:33:03;9.20;99.90
6252;DHT22;3159;52.414;9.784;2024-02-21T02:35:30;9.10;99.90
6252;DHT22;3159;52.414;9.784;2024-02-21T02:37:57;9.20;99.90
6252;DHT22;3159;52.414;9.784;2024-02-21T02:40:24;9.30;99.90
6252;DHT22;3159;52.414;9.784;2024-02-21T02:42:53;9.30;99.90
6252;DHT22;3159;52.414;9.784;2024-02-21T02:45:21;9.20;99.90
6252;DHT22;3159;52.414;9.784;2024-02-21T02:47:49;9.20;99.90
6252;DHT22;3159;52.414;9.784;2024-02-21T02:50:16;9.20;99.90
6252;DHT22;3159;52.414;9.784;2024-02-21T02:52:42;9.20;99.90
6252;DHT22;3159;52.414;9.784;2024-02-21T02:55:09;9.20;99.90
6252;DHT22;3159;52.414;9.784;2024-02-21T02:57:36;9.20;99.90
6252;DHT22;3159;52.414;9.784;2024-02-21T03:00:05;9.30;99.90
6252;DHT22;3159;52.414;9.784;2024-02-21T03:02:33;9.30;99.90
6252;DHT22;3159;52.414;9.784;2024-02-21T03:05:00;9.30;99.90
6252;DHT22;3159;52.414;9.784;2024-02-21T03:07:26;9.30;99.90
6252;DHT22;3159;52.414;9.784;2024-02-21T03:09:53;9.30;99.90
6252;DHT22;3159;52.414;9.784;2024-02-21T03:12:20;9.30;99.90
6252;DHT22;3159;52.414;9.784;2024-02-21T03:14:53;9.30;99.90
6252;DHT22;3159;52.414;9.784;2024-02-21T03:17:21;9.30;99.90
6252;DHT22;3159;52.414;9.784;2024-02-21T03:19:48;9.20;99.90
6252;DHT22;3159;52.414;9.784;2024-02-21T03:22:15;9.20;99.90
6252;DHT22;3159;52.414;9.784;2024-02-21T03:24:42;9.30;99.90
6252;DHT22;3159;52.414;9.784;2024-02-21T03:27:09;9.20;99.90
6252;DHT22;3159;52.414;9.784;2024-02-21T03:29:36;9.30;99.90
6252;DHT22;3159;52.414;9.784;2024-02-21T03:32:03;9.20;99.90
6252;DHT22;3159;52.414;9.784;2024-02-21T03:34:32;9.30;99.90
6252;DHT22;3159;52.414;9.784;2024-02-21T03:36:58;9.20;99.90
6252;DHT22;3159;52.414;9.784;2024-02-21T03:39:25;9.20;99.90
6252;DHT22;3159;52.414;9.784;2024-02-21T03:41:52;9.20;99.90
6252;DHT22;3159;52.414;9.784;2024-02-21T03:44:19;9.20;99.90
6252;DHT22;3159;52.414;9.784;2024-02-21T03:46:46;9.30;99.90
6252;DHT22;3159;52.414;9.784;2024-02-21T03:49:12;9.20;99.90
6252;DHT22;3159;52.414;9.784;2024-02-21T03:51:40;9.20;99.90
6252;DHT22;3159;52.414;9.784;2024-02-21T03:54:07;9.30;99.90
6252;DHT22;3159;52.414;9.784;2024-02-21T03:56:37;9.30;99.90
6252;DHT22;3159;52.414;9.784;2024-02-21T03:59:05;9.30;99.90
6252;DHT22;3159;52.414;9.784;2024-02-21T04:01:32;9.20;99.90
6252;DHT22;3159;52.414;9.784;2024-02-21T04:03:58;9.20;99.90
6252;DHT22;3159;52.414;9.784;2024-02-21T04:06:25;9.30;99.90
6252;DHT22;3159;52.414;9.784;2024-02-21T04:08:54;9.20;99.90
6252;DHT22;3159;52.414;9.784;2024-02-21T04:11:20;9.20;99.90
6252;DHT22;3159;52.414;9.784;2024-02-21T04:13:47;9.30;99.90
6252;DHT22;3159;52.414;9.784;2024-02-21T04:16:14;9.30;99.90
6252;DHT22;3159;52.414;9.784;2024-02-21T04:18:41;9.30;99.90
6252;DHT22;3159;52.414;9.784;2024-02-21T04:21:08;9.30;99.90
6252;DHT22;3159;52.414;9.784;2024-02-21T04:23:35;9.40;99.90
6252;DHT22;3159;52.414;9.784;2024-02-21T04:26:03;9.30;99.90
6252;DHT22;3159;52.414;9.784;2024-02-21T04:28:30;9.30;99.90
6252;DHT22;3159;52.414;9.784;2024-02-21T04:30:57;9.30;99.90
6252;DHT22;3159;52.414;9.784;2024-02-21T04:33:23;9.30;99.90
6252;DHT22;3159;52.414;9.784;2024-02-21T04:35:50;9.30;99.90
6252;DHT22;3159;52.414;9.784;2024-02-21T04:38:20;9.30;99.90
6252;DHT22;3159;52.414;9.784;2024-02-21T04:40:47;9.30;99.90
6252;DHT22;3159;52.414;9.784;2024-02-21T04:43:15;9.30;99.90
6252;DHT22;3159;52.414;9.784;2024-02-21T04:45:42;9.30;99.90
6252;DHT22;3159;52.414;9.784;2024-02-21T04:48:09;9.30;99.90
6252;DHT22;3159;52.414;9.784;2024-02-21T04:50:35;9.30;99.90
6252;DHT22;3159;52.414;9.784;2024-02-21T04:53:02;9.20;99.90
6252;DHT22;3159;52.414;9.784;2024-02-21T04:55:29;9.30;99.90
6252;DHT22;3159;52.414;9.784;2024-02-21T04:57:56;9.40;99.90
6252;DHT22;3159;52.414;9.784;2024-02-21T05:00:24;9.30;99.90
6252;DHT22;3159;52.414;9.784;2024-02-21T05:02:51;9.20;99.90
6252;DHT22;3159;52.414;9.784;2024-02-21T05:05:18;9.30;99.90
6252;DHT22;3159;52.414;9.784;2024-02-21T05:07:44;9.30;99.90
6252;DHT22;3159;52.414;9.784;2024-02-21T05:10:12;9.20;99.90
6252;DHT22;3159;52.414;9.784;2024-02-21T05:12:38;9.30;99.90
6252;DHT22;3159;52.414;9.784;2024-02-21T05:15:06;9.20;99.90
6252;DHT22;3159;52.414;9.784;2024-02-21T05:17:35;9.20;99.90
6252;DHT22;3159;52.414;9.784;2024-02-21T05:20:02;9.30;99.90
6252;DHT22;3159;52.414;9.784;2024-02-21T05:22:29;9.20;99.90
6252;DHT22;3159;52.414;9.784;2024-02-21T05:24:56;9.20;99.90
6252;DHT22;3159;52.414;9.784;2024-02-21T05:27:22;9.20;99.90
6252;DHT22;3159;52.414;9.784;2024-02-21T05:29:49;9.20;99.90
6252;DHT22;3159;52.414;9.784;2024-02-21T05:32:16;9.20;99.90
6252;DHT22;3159;52.414;9.784;2024-02-21T05:34:44;9.20;99.90
6252;DHT22;3159;52.414;9.784;2024-02-21T05:37:11;9.20;99.90
6252;DHT22;3159;52.414;9.784;2024-02-21T05:39:37;9.20;99.90
6252;DHT22;3159;52.414;9.784;2024-02-21T05:42:05;9.20;99.90
6252;DHT22;3159;52.414;9.784;2024-02-21T05:44:32;9.20;99.90
6252;DHT22;3159;52.414;9.784;2024-02-21T05:46:58;9.20;99.90
6252;DHT22;3159;52.414;9.784;2024-02-21T05:49:25;9.20;99.90
6252;DHT22;3159;52.414;9.784;2024-02-21T05:51:53;9.20;99.90
6252;DHT22;3159;52.414;9.784;2024-02-21T05:54:20;9.20;99.90
6252;DHT22;3159;52.414;9.784;2024-02-21T05:56:50;9.20;99.90
6252;DHT22;3159;52.414;9.784;2024-02-21T05:59:17;9.20;99.90
6252;DHT22;3159;52.414;9.784;2024-02-21T06:01:55;9.30;99.90
6252;DHT22;3159;52.414;9.784;2024-02-21T06:04:31;9.20;99.90
6252;DHT22;3159;52.414;9.784;2024-02-21T06:07:08;9.10;99.90
6252;DHT22;3159;52.414;9.784;2024-02-21T06:09:38;9.10;99.90
6252;DHT22;3159;52.414;9.784;2024-02-21T06:12:08;9.00;99.90
6252;DHT22;3159;52.414;9.784;2024-02-21T06:14:35;9.00;99.90
6252;DHT22;3159;52.414;9.784;2024-02-21T06:17:03;9.00;99.90
6252;DHT22;3159;52.414;9.784;2024-02-21T06:19:30;9.00;99.90
6252;DHT22;3159;52.414;9.784;2024-02-21T06:21:57;9.10;99.90
6252;DHT22;3159;52.414;9.784;2024-02-21T06:24:26;9.00;99.90
6252;DHT22;3159;52.414;9.784;2024-02-21T06:26:53;9.00;99.90
6252;DHT22;3159;52.414;9.784;2024-02-21T06:29:21;9.10;99.90
6252;DHT22;3159;52.414;9.784;2024-02-21T06:31:48;9.10;99.90
6252;DHT22;3159;52.414;9.784;2024-02-21T06:34:15;9.10;99.90
6252;DHT22;3159;52.414;9.784;2024-02-21T06:36:42;9.00;99.90
6252;DHT22;3159;52.414;9.784;2024-02-21T06:39:21;9.10;99.90
6252;DHT22;3159;52.414;9.784;2024-02-21T06:41:50;9.00;99.90
6252;DHT22;3159;52.414;9.784;2024-02-21T06:44:19;9.00;99.90
6252;DHT22;3159;52.414;9.784;2024-02-21T06:46:46;9.00;99.90
6252;DHT22;3159;52.414;9.784;2024-02-21T06:49:13;9.10;99.90
6252;DHT22;3159;52.414;9.784;2024-02-21T06:51:41;9.10;99.90
6252;DHT22;3159;52.414;9.784;2024-02-21T06:54:09;9.10;99.90
6252;DHT22;3159;52.414;9.784;2024-02-21T06:56:36;9.10;99.90
6252;DHT22;3159;52.414;9.784;2024-02-21T06:59:05;9.10;99.90
6252;DHT22;3159;52.414;9.784;2024-02-21T07:01:32;9.10;99.90
6252;DHT22;3159;52.414;9.784;2024-02-21T07:03:59;8.90;99.90
6252;DHT22;3159;52.414;9.784;2024-02-21T07:06:26;9.00;99.90
6252;DHT22;3159;52.414;9.784;2024-02-21T07:08:52;9.00;99.90
6252;DHT22;3159;52.414;9.784;2024-02-21T07:11:19;9.00;99.90
6252;DHT22;3159;52.414;9.784;2024-02-21T07:13:46;9.00;99.90
6252;DHT22;3159;52.414;9.784;2024-02-21T07:16:14;8.90;99.90
6252;DHT22;3159;52.414;9.784;2024-02-21T07:18:42;9.00;99.90
6252;DHT22;3159;52.414;9.784;2024-02-21T07:21:08;9.00;99.90
6252;DHT22;3159;52.414;9.784;2024-02-21T07:23:35;8.90;99.90
6252;DHT22;3159;52.414;9.784;2024-02-21T07:26:03;9.00;99.90
6252;DHT22;3159;52.414;9.784;2024-02-21T07:28:30;8.90;99.90
6252;DHT22;3159;52.414;9.784;2024-02-21T07:30:59;9.00;99.90
6252;DHT22;3159;52.414;9.784;2024-02-21T07:33:27;9.00;99.90
6252;DHT22;3159;52.414;9.784;2024-02-21T07:35:54;9.00;99.90
6252;DHT22;3159;52.414;9.784;2024-02-21T07:38:21;9.00;99.90
6252;DHT22;3159;52.414;9.784;2024-02-21T07:40:48;9.10;99.90
6252;DHT22;3159;52.414;9.784;2024-02-21T07:43:14;9.00;99.90
6252;DHT22;3159;52.414;9.784;2024-02-21T07:45:41;9.00;99.90
6252;DHT22;3159;52.414;9.784;2024-02-21T07:48:08;9.10;99.90
6252;DHT22;3159;52.414;9.784;2024-02-21T07:50:36;9.10;99.90
6252;DHT22;3159;52.414;9.784;2024-02-21T07:53:03;9.10;99.90
6252;DHT22;3159;52.414;9.784;2024-02-21T07:55:30;9.10;99.90
6252;DHT22;3159;52.414;9.784;2024-02-21T07:57:57;9.10;99.90
6252;DHT22;3159;52.414;9.784;2024-02-21T08:00:24;9.10;99.90
6252;DHT22;3159;52.414;9.784;2024-02-21T08:02:50;9.10;99.90
6252;DHT22;3159;52.414;9.784;2024-02-21T08:05:17;9.20;99.90
6252;DHT22;3159;52.414;9.784;2024-02-21T08:07:45;9.20;99.90
6252;DHT22;3159;52.414;9.784;2024-02-21T08:10:12;9.10;99.90
6252;DHT22;3159;52.414;9.784;2024-02-21T08:12:39;9.10;99.90
6252;DHT22;3159;52.414;9.784;2024-02-21T08:15:06;9.20;99.90
6252;DHT22;3159;52.414;9.784;2024-02-21T08:17:34;9.20;99.90
6252;DHT22;3159;52.414;9.784;2024-02-21T08:20:00;9.30;99.90
6252;DHT22;3159;52.414;9.784;2024-02-21T08:22:28;9.20;99.90
6252;DHT22;3159;52.414;9.784;2024-02-21T08:24:56;9.20;99.90
6252;DHT22;3159;52.414;9.784;2024-02-21T08:27:23;9.30;99.90
6252;DHT22;3159;52.414;9.784;2024-02-21T08:29:50;9.20;99.90
6252;DHT22;3159;52.414;9.784;2024-02-21T08:32:17;9.30;99.90
6252;DHT22;3159;52.414;9.784;2024-02-21T08:34:43;9.30;99.90
6252;DHT22;3159;52.414;9.784;2024-02-21T08:37:10;9.40;99.90
6252;DHT22;3159;52.414;9.784;2024-02-21T08:39:37;9.40;99.90
6252;DHT22;3159;52.414;9.784;2024-02-21T08:42:06;9.40;99.90
6252;DHT22;3159;52.414;9.784;2024-02-21T08:44:33;9.40;99.90
6252;DHT22;3159;52.414;9.784;2024-02-21T08:46:59;9.40;99.90
6252;DHT22;3159;52.414;9.784;2024-02-21T08:49:29;9.40;99.90
6252;DHT22;3159;52.414;9.784;2024-02-21T08:51:56;9.50;99.90
6252;DHT22;3159;52.414;9.784;2024-02-21T08:54:23;9.60;99.90
6252;DHT22;3159;52.414;9.784;2024-02-21T08:56:50;9.60;99.90
6252;DHT22;3159;52.414;9.784;2024-02-21T08:59:18;9.60;99.90
6252;DHT22;3159;52.414;9.784;2024-02-21T09:01:46;9.70;99.90
6252;DHT22;3159;52.414;9.784;2024-02-21T09:04:13;9.70;99.90
6252;DHT22;3159;52.414;9.784;2024-02-21T09:06:39;9.70;99.90
6252;DHT22;3159;52.414;9.784;2024-02-21T09:09:08;9.80;99.90
6252;DHT22;3159;52.414;9.784;2024-02-21T09:11:35;9.80;99.90
6252;DHT22;3159;52.414;9.784;2024-02-21T09:14:02;9.80;99.90
6252;DHT22;3159;52.414;9.784;2024-02-21T09:16:31;9.90;99.90
6252;DHT22;3159;52.414;9.784;2024-02-21T09:18:58;9.80;99.90
6252;DHT22;3159;52.414;9.784;2024-02-21T09:21:26;9.90;99.90
6252;DHT22;3159;52.414;9.784;2024-02-21T09:23:53;10.00;99.90
6252;DHT22;3159;52.414;9.784;2024-02-21T09:26:20;10.10;99.90
6252;DHT22;3159;52.414;9.784;2024-02-21T09:28:47;10.20;99.90
6252;DHT22;3159;52.414;9.784;2024-02-21T09:31:14;10.20;99.90
6252;DHT22;3159;52.414;9.784;2024-02-21T09:33:42;10.30;99.90
6252;DHT22;3159;52.414;9.784;2024-02-21T09:36:08;10.10;99.90
6252;DHT22;3159;52.414;9.784;2024-02-21T09:38:35;10.10;99.90
6252;DHT22;3159;52.414;9.784;2024-02-21T09:41:11;10.10;99.90
6252;DHT22;3159;52.414;9.784;2024-02-21T09:43:41;10.20;99.90
6252;DHT22;3159;52.414;9.784;2024-02-21T09:46:14;10.20;99.90
6252;DHT22;3159;52.414;9.784;2024-02-21T09:48:56;10.20;99.90
6252;DHT22;3159;52.414;9.784;2024-02-21T09:51:27;10.20;99.90
6252;DHT22;3159;52.414;9.784;2024-02-21T09:53:56;10.10;99.90
6252;DHT22;3159;52.414;9.784;2024-02-21T09:56:24;10.20;99.90
6252;DHT22;3159;52.414;9.784;2024-02-21T09:58:50;10.00;99.90
6252;DHT22;3159;52.414;9.784;2024-02-21T10:01:17;10.10;99.90
6252;DHT22;3159;52.414;9.784;2024-02-21T10:03:46;10.20;99.90
6252;DHT22;3159;52.414;9.784;2024-02-21T10:06:13;10.10;99.90
6252;DHT22;3159;52.414;9.784;2024-02-21T10:08:39;10.00;99.90
6252;DHT22;3159;52.414;9.784;2024-02-21T10:11:06;10.10;99.90
6252;DHT22;3159;52.414;9.784;2024-02-21T10:13:35;10.20;99.90
6252;DHT22;3159;52.414;9.784;2024-02-21T10:16:04;10.10;99.90
6252;DHT22;3159;52.414;9.784;2024-02-21T10:18:32;10.10;99.90
6252;DHT22;3159;52.414;9.784;2024-02-21T10:21:05;10.10;99.90
6252;DHT22;3159;52.414;9.784;2024-02-21T10:23:42;10.10;99.90
6252;DHT22;3159;52.414;9.784;2024-02-21T10:26:09;10.20;99.90
6252;DHT22;3159;52.414;9.784;2024-02-21T10:28:37;10.20;99.90
6252;DHT22;3159;52.414;9.784;2024-02-21T10:31:08;10.10;99.90
6252;DHT22;3159;52.414;9.784;2024-02-21T10:33:35;10.30;99.90
6252;DHT22;3159;52.414;9.784;2024-02-21T10:36:08;10.30;99.90
6252;DHT22;3159;52.414;9.784;2024-02-21T10:38:36;10.20;99.90
6252;DHT22;3159;52.414;9.784;2024-02-21T10:41:04;10.20;99.90
6252;DHT22;3159;52.414;9.784;2024-02-21T10:43:37;10.40;99.90
6252;DHT22;3159;52.414;9.784;2024-02-21T10:46:05;10.50;99.90
6252;DHT22;3159;52.414;9.784;2024-02-21T10:48:41;10.50;99.90
6252;DHT22;3159;52.414;9.784;2024-02-21T10:51:17;10.50;99.90
6252;DHT22;3159;52.414;9.784;2024-02-21T10:53:47;10.50;99.90
6252;DHT22;3159;52.414;9.784;2024-02-21T10:56:22;10.60;99.90
6252;DHT22;3159;52.414;9.784;2024-02-21T10:58:50;10.60;99.90
6252;DHT22;3159;52.414;9.784;2024-02-21T11:01:19;10.70;99.90
6252;DHT22;3159;52.414;9.784;2024-02-21T11:03:47;10.80;99.90
6252;DHT22;3159;52.414;9.784;2024-02-21T11:06:17;10.70;99.90
6252;DHT22;3159;52.414;9.784;2024-02-21T11:08:45;10.70;99.90
6252;DHT22;3159;52.414;9.784;2024-02-21T11:11:13;10.70;99.90
6252;DHT22;3159;52.414;9.784;2024-02-21T11:13:43;10.80;99.90
6252;DHT22;3159;52.414;9.784;2024-02-21T11:16:12;10.70;99.90
6252;DHT22;3159;52.414;9.784;2024-02-21T11:18:39;10.80;99.90
6252;DHT22;3159;52.414;9.784;2024-02-21T11:21:06;10.80;99.90
6252;DHT22;3159;52.414;9.784;2024-02-21T11:23:34;10.70;99.90
6252;DHT22;3159;52.414;9.784;2024-02-21T11:26:05;10.70;99.90
6252;DHT22;3159;52.414;9.784;2024-02-21T11:28:32;10.80;99.90
6252;DHT22;3159;52.414;9.784;2024-02-21T11:31:07;10.80;99.90
6252;DHT22;3159;52.414;9.784;2024-02-21T11:33:34;10.80;99.90
6252;DHT22;3159;52.414;9.784;2024-02-21T11:36:01;10.80;99.90
6252;DHT22;3159;52.414;9.784;2024-02-21T11:38:29;10.90;99.90
6252;DHT22;3159;52.414;9.784;2024-02-21T11:40:57;10.90;99.90
6252;DHT22;3159;52.414;9.784;2024-02-21T11:43:24;10.90;99.90
6252;DHT22;3159;52.414;9.784;2024-02-21T11:45:58;10.90;99.90
6252;DHT22;3159;52.414;9.784;2024-02-21T11:48:26;10.90;99.90
6252;DHT22;3159;52.414;9.784;2024-02-21T11:50:53;11.00;99.90
6252;DHT22;3159;52.414;9.784;2024-02-21T11:53:21;11.10;99.90
6252;DHT22;3159;52.414;9.784;2024-02-21T11:55:48;11.10;99.90
6252;DHT22;3159;52.414;9.784;2024-02-21T11:58:17;11.00;99.90
6252;DHT22;3159;52.414;9.784;2024-02-21T12:00:44;11.00;99.90
6252;DHT22;3159;52.414;9.784;2024-02-21T12:03:11;10.90;99.90
6252;DHT22;3159;52.414;9.784;2024-02-21T12:05:37;11.00;99.90
6252;DHT22;3159;52.414;9.784;2024-02-21T12:08:05;11.10;99.90
6252;DHT22;3159;52.414;9.784;2024-02-21T12:10:32;11.00;99.90
6252;DHT22;3159;52.414;9.784;2024-02-21T12:13:08;11.00;99.90
6252;DHT22;3159;52.414;9.784;2024-02-21T12:15:38;11.10;99.90
6252;DHT22;3159;52.414;9.784;2024-02-21T12:18:05;11.00;99.90
6252;DHT22;3159;52.414;9.784;2024-02-21T12:20:32;11.00;99.90
6252;DHT22;3159;52.414;9.784;2024-02-21T12:23:00;11.10;99.90
6252;DHT22;3159;52.414;9.784;2024-02-21T12:25:28;11.20;99.90
6252;DHT22;3159;52.414;9.784;2024-02-21T12:27:55;11.10;99.90
6252;DHT22;3159;52.414;9.784;2024-02-21T12:30:22;11.10;99.90
6252;DHT22;3159;52.414;9.784;2024-02-21T12:32:50;11.10;99.90
6252;DHT22;3159;52.414;9.784;2024-02-21T12:35:17;11.10;99.90
6252;DHT22;3159;52.414;9.784;2024-02-21T12:37:44;11.10;99.90
6252;DHT22;3159;52.414;9.784;2024-02-21T12:40:11;11.10;99.90
6252;DHT22;3159;52.414;9.784;2024-02-21T12:42:40;11.20;99.90
6252;DHT22;3159;52.414;9.784;2024-02-21T12:45:07;11.30;99.90
6252;DHT22;3159;52.414;9.784;2024-02-21T12:47:34;11.20;99.90
6252;DHT22;3159;52.414;9.784;2024-02-21T12:50:03;11.30;99.90
6252;DHT22;3159;52.414;9.784;2024-02-21T12:52:32;11.50;99.90
6252;DHT22;3159;52.414;9.784;2024-02-21T12:54:59;11.50;99.90
6252;DHT22;3159;52.414;9.784;2024-02-21T12:57:25;11.50;99.90
6252;DHT22;3159;52.414;9.784;2024-02-21T12:59:52;11.40;99.90
6252;DHT22;3159;52.414;9.784;2024-02-21T13:02:19;11.50;99.90
6252;DHT22;3159;52.414;9.784;2024-02-21T13:04:46;11.60;99.90
6252;DHT22;3159;52.414;9.784;2024-02-21T13:07:15;11.70;99.90
6252;DHT22;3159;52.414;9.784;2024-02-21T13:09:41;11.70;99.90
6252;DHT22;3159;52.414;9.784;2024-02-21T13:12:08;11.60;99.90
6252;DHT22;3159;52.414;9.784;2024-02-21T13:14:35;11.70;99.90
6252;DHT22;3159;52.414;9.784;2024-02-21T13:17:04;11.70;99.90
6252;DHT22;3159;52.414;9.784;2024-02-21T13:19:31;11.70;99.90
6252;DHT22;3159;52.414;9.784;2024-02-21T13:21:58;11.60;99.90
6252;DHT22;3159;52.414;9.784;2024-02-21T13:24:26;11.50;99.90
6252;DHT22;3159;52.414;9.784;2024-02-21T13:26:53;11.40;99.90
6252;DHT22;3159;52.414;9.784;2024-02-21T13:29:20;11.30;99.90
6252;DHT22;3159;52.414;9.784;2024-02-21T13:31:47;11.30;99.90
6252;DHT22;3159;52.414;9.784;2024-02-21T13:34:15;11.40;99.90
6252;DHT22;3159;52.414;9.784;2024-02-21T13:36:42;11.40;99.90
6252;DHT22;3159;52.414;9.784;2024-02-21T13:39:09;11.40;99.90
6252;DHT22;3159;52.414;9.784;2024-02-21T13:41:39;11.60;99.90
6252;DHT22;3159;52.414;9.784;2024-02-21T13:44:07;11.50;99.90
6252;DHT22;3159;52.414;9.784;2024-02-21T13:46:34;11.30;99.90
6252;DHT22;3159;52.414;9.784;2024-02-21T13:49:03;11.50;99.90
6252;DHT22;3159;52.414;9.784;2024-02-21T13:51:32;11.50;99.90
6252;DHT22;3159;52.414;9.784;2024-02-21T13:53:59;11.60;99.90
6252;DHT22;3159;52.414;9.784;2024-02-21T13:56:26;11.60;99.90
6252;DHT22;3159;52.414;9.784;2024-02-21T13:58:54;11.60;99.90
6252;DHT22;3159;52.414;9.784;2024-02-21T14:01:21;11.60;99.90
6252;DHT22;3159;52.414;9.784;2024-02-21T14:03:48;11.50;99.90
6252;DHT22;3159;52.414;9.784;2024-02-21T14:06:14;11.50;99.90
6252;DHT22;3159;52.414;9.784;2024-02-21T14:08:42;11.50;99.90
6252;DHT22;3159;52.414;9.784;2024-02-21T14:11:09;11.60;99.90
6252;DHT22;3159;52.414;9.784;2024-02-21T14:13:36;11.50;99.90
6252;DHT22;3159;52.414;9.784;2024-02-21T14:16:09;11.40;99.90
6252;DHT22;3159;52.414;9.784;2024-02-21T14:18:37;11.50;99.90
6252;DHT22;3159;52.414;9.784;2024-02-21T14:21:04;11.50;99.90
6252;DHT22;3159;52.414;9.784;2024-02-21T14:23:31;11.50;99.90
6252;DHT22;3159;52.414;9.784;2024-02-21T14:25:59;11.50;99.90
6252;DHT22;3159;52.414;9.784;2024-02-21T14:28:25;11.20;99.90
6252;DHT22;3159;52.414;9.784;2024-02-21T14:30:52;11.30;99.90
6252;DHT22;3159;52.414;9.784;2024-02-21T14:33:24;11.40;99.90
6252;DHT22;3159;52.414;9.784;2024-02-21T14:35:51;11.30;99.90
6252;DHT22;3159;52.414;9.784;2024-02-21T14:38:18;11.30;99.90
6252;DHT22;3159;52.414;9.784;2024-02-21T14:40:45;11.30;99.90
6252;DHT22;3159;52.414;9.784;2024-02-21T14:43:12;11.00;99.90
6252;DHT22;3159;52.414;9.784;2024-02-21T14:45:39;11.10;99.90
6252;DHT22;3159;52.414;9.784;2024-02-21T14:48:06;11.10;99.90
6252;DHT22;3159;52.414;9.784;2024-02-21T14:50:35;11.10;99.90
6252;DHT22;3159;52.414;9.784;2024-02-21T14:53:01;10.90;99.90
6252;DHT22;3159;52.414;9.784;2024-02-21T14:55:28;11.00;99.90
6252;DHT22;3159;52.414;9.784;2024-02-21T14:57:55;11.00;99.90
6252;DHT22;3159;52.414;9.784;2024-02-21T15:00:22;11.00;99.90
6252;DHT22;3159;52.414;9.784;2024-02-21T15:02:55;11.00;99.90
6252;DHT22;3159;52.414;9.784;2024-02-21T15:05:22;10.90;99.90
6252;DHT22;3159;52.414;9.784;2024-02-21T15:07:51;10.90;99.90
6252;DHT22;3159;52.414;9.784;2024-02-21T15:10:18;11.00;99.90
6252;DHT22;3159;52.414;9.784;2024-02-21T15:12:45;10.90;99.90
6252;DHT22;3159;52.414;9.784;2024-02-21T15:15:12;10.90;99.90
6252;DHT22;3159;52.414;9.784;2024-02-21T15:17:39;10.90;99.90
6252;DHT22;3159;52.414;9.784;2024-02-21T15:20:06;10.90;99.90
6252;DHT22;3159;52.414;9.784;2024-02-21T15:22:34;10.80;99.90
6252;DHT22;3159;52.414;9.784;2024-02-21T15:25:02;10.90;99.90
6252;DHT22;3159;52.414;9.784;2024-02-21T15:27:31;10.70;99.90
6252;DHT22;3159;52.414;9.784;2024-02-21T15:29:58;10.90;99.90
6252;DHT22;3159;52.414;9.784;2024-02-21T15:32:25;11.00;99.90
6252;DHT22;3159;52.414;9.784;2024-02-21T15:34:52;10.90;99.90
6252;DHT22;3159;52.414;9.784;2024-02-21T15:37:18;10.90;99.90
6252;DHT22;3159;52.414;9.784;2024-02-21T15:39:45;10.70;99.90
6252;DHT22;3159;52.414;9.784;2024-02-21T15:42:14;10.90;99.90
6252;DHT22;3159;52.414;9.784;2024-02-21T15:44:41;10.90;99.90
6252;DHT22;3159;52.414;9.784;2024-02-21T15:47:08;10.70;99.90
6252;DHT22;3159;52.414;9.784;2024-02-21T15:49:35;10.60;99.90
6252;DHT22;3159;52.414;9.784;2024-02-21T15:52:02;10.50;99.90
6252;DHT22;3159;52.414;9.784;2024-02-21T15:54:29;10.70;99.90
6252;DHT22;3159;52.414;9.784;2024-02-21T15:56:56;10.50;99.90
6252;DHT22;3159;52.414;9.784;2024-02-21T15:59:24;10.60;99.90
6252;DHT22;3159;52.414;9.784;2024-02-21T16:01:51;10.70;99.90
6252;DHT22;3159;52.414;9.784;2024-02-21T16:04:17;10.60;99.90
6252;DHT22;3159;52.414;9.784;2024-02-21T16:06:44;10.60;99.90
6252;DHT22;3159;52.414;9.784;2024-02-21T16:09:16;10.50;99.90
6252;DHT22;3159;52.414;9.784;2024-02-21T16:11:43;10.50;99.90
6252;DHT22;3159;52.414;9.784;2024-02-21T16:14:10;10.40;99.90
6252;DHT22;3159;52.414;9.784;2024-02-21T16:16:39;10.30;99.90